Airfield :
LOGIN :

Register | Disclaimer

   EN    FR    IT 

 










Legend :    VFR   Marginal VFR   IFR   Intensive IFR   Very Intensive IFR
Visi :
Ceiling :
>= 8 km
>= 3000ft
5 to 8 km
1000 to 3000 ft
1500m to 5 km
500 to 1000 ft
800 to 1500m
200 to 500 ft
< 800m
< 200 ft
Symbols :   Thunderstorms  Fog  Heavy snow  Heavy precipitations  Wind > 20 kt
SIGMETs :     Misc.  Thunderstorms  Icing  Turbulence  Mountain Waves  Volcanic Ashes






- Airport Elevation : 100 ft


EBDT - Schaffen

CURRENT METAR :
  • 120325Z AUTO VRB02KT 9999 FEW130/// SCT160/// 20/18 Q1013 BLU

EXPIRED METARs :
  • 120255Z AUTO VRB02KT 9999 FEW130/// BKN160/// 20/18 Q1013 BLU
  • 120225Z AUTO 05003KT 9999 SCT140/// BKN220/// 20/18 Q1014 BLU
  • 120155Z AUTO 05004KT 9999 BKN140/// 21/18 Q1014 BLU
  • 120125Z AUTO 04004KT 9999 BKN160/// 20/19 Q1014 BLU
  • 120111Z AUTO 03004KT 3300 SCT160/// 20/19 Q1014 YLO
  • 120103Z AUTO 02003KT 4000 NCD 20/19 Q1014 GRN
  • 120055Z AUTO VRB02KT 9999 NCD 21/18 Q1014 BLU

Expired Forecast.



MET'MAP, your aeronautical weather chart ! - Copyright ORBIFLY December 2007 - Disclaimer

ORBIFLY MET'MAP TEAM :

Programming & Development : Alexandra Zaïnal
Concept & original design : Baudouin d'Aumeries
Assistance for programming : Marc-Olivier Méhu
Technical & hardware support : Manuel Goepfert

Contact : metmap@orbifly.com




SOURCES & CREDITS :

   NOAA